SPKIC EPGL-EPGL
Flight info
| Callsign | SPKIC |
|---|---|
| Flight time | 1h 7m |
| Altitude | 2000 |
| Route | DCT EPGLT DCT EPKTG DCT EPKTX DCT EPKTX DCT EPKTG DCT EPKMH DCT EPGL |
| Aircraft | C150/L-S/C |
Departure
| Time | 2026-05-04 10:41 |
|---|---|
| Airport | Gliwice-Trynek Airfield (EPGL) |
Arrival
| Time | 2026-05-04 11:48 |
|---|---|
| Airport | Gliwice-Trynek Airfield (EPGL) |
| Time | Latitude | Longitude | Altitude | Speed | Heading |
|---|---|---|---|---|---|
| 2026-05-04 10:33 | 50.27260 | 18.67294 | 867 ft | 0 kts | 91° |
| 2026-05-04 10:36 | 50.27260 | 18.67296 | 867 ft | 0 kts | 89° |
| 2026-05-04 10:37 | 50.27257 | 18.67301 | 862 ft | 2 kts | 156° |
| 2026-05-04 10:37 | 50.27215 | 18.67296 | 867 ft | 9 kts | 178° |
| 2026-05-04 10:37 | 50.27158 | 18.67361 | 867 ft | 13 kts | 114° |
| 2026-05-04 10:37 | 50.27127 | 18.67492 | 864 ft | 12 kts | 108° |
| 2026-05-04 10:39 | 50.27072 | 18.67858 | 867 ft | 0 kts | 278° |
| 2026-05-04 10:39 | 50.27052 | 18.67869 | 865 ft | 10 kts | 121° |
| 2026-05-04 10:39 | 50.26984 | 18.67912 | 867 ft | 12 kts | 182° |
| 2026-05-04 10:40 | 50.26888 | 18.67899 | 864 ft | 15 kts | 186° |
| 2026-05-04 10:40 | 50.26773 | 18.67881 | 867 ft | 16 kts | 196° |
| 2026-05-04 10:40 | 50.26746 | 18.67669 | 868 ft | 39 kts | 266° |
| 2026-05-04 10:40 | 50.26732 | 18.67103 | 944 ft | 57 kts | 257° |
| 2026-05-04 10:41 | 50.26707 | 18.66501 | 1112 ft | 52 kts | 258° |
| 2026-05-04 10:41 | 50.26676 | 18.66010 | 1291 ft | 44 kts | 256° |
| 2026-05-04 10:41 | 50.26635 | 18.65476 | 1383 ft | 60 kts | 269° |
| 2026-05-04 10:41 | 50.26882 | 18.64933 | 1600 ft | 68 kts | 322° |
| 2026-05-04 10:42 | 50.27424 | 18.64765 | 1698 ft | 91 kts | 5° |
| 2026-05-04 10:42 | 50.28059 | 18.65042 | 1824 ft | 98 kts | 20° |
| 2026-05-04 10:42 | 50.28674 | 18.65600 | 1946 ft | 104 kts | 36° |
| 2026-05-04 10:42 | 50.29275 | 18.66312 | 2111 ft | 107 kts | 35° |
| 2026-05-04 10:43 | 50.29836 | 18.67136 | 2257 ft | 110 kts | 46° |
| 2026-05-04 10:44 | 50.31926 | 18.75031 | 1915 ft | 120 kts | 74° |
| 2026-05-04 10:45 | 50.32203 | 18.76200 | 2000 ft | 111 kts | 73° |
| 2026-05-04 10:45 | 50.32464 | 18.77348 | 2059 ft | 112 kts | 75° |
| 2026-05-04 10:45 | 50.32673 | 18.78504 | 2046 ft | 109 kts | 77° |
| 2026-05-04 10:45 | 50.32924 | 18.79687 | 1948 ft | 117 kts | 74° |
| 2026-05-04 10:46 | 50.33218 | 18.80866 | 1897 ft | 116 kts | 73° |
| 2026-05-04 10:46 | 50.33516 | 18.82058 | 1861 ft | 119 kts | 71° |
| 2026-05-04 10:46 | 50.33777 | 18.83267 | 1866 ft | 117 kts | 76° |
| 2026-05-04 10:46 | 50.34069 | 18.84483 | 1812 ft | 120 kts | 73° |
| 2026-05-04 10:47 | 50.34328 | 18.85716 | 1725 ft | 120 kts | 76° |
| 2026-05-04 10:47 | 50.34592 | 18.86949 | 1702 ft | 120 kts | 79° |
| 2026-05-04 10:47 | 50.34828 | 18.88188 | 1674 ft | 117 kts | 77° |
| 2026-05-04 10:47 | 50.34989 | 18.89376 | 1658 ft | 112 kts | 86° |
| 2026-05-04 10:49 | 50.37859 | 18.95961 | 2130 ft | 117 kts | 49° |
| 2026-05-04 10:49 | 50.38418 | 18.96949 | 1983 ft | 126 kts | 53° |
| 2026-05-04 10:50 | 50.38947 | 18.98073 | 1858 ft | 130 kts | 56° |
| 2026-05-04 10:51 | 50.40683 | 19.05898 | 1782 ft | 111 kts | 9° |
| 2026-05-04 10:52 | 50.41433 | 19.06157 | 1858 ft | 111 kts | 4° |
| 2026-05-04 10:52 | 50.42185 | 19.06371 | 1848 ft | 110 kts | 7° |
| 2026-05-04 10:52 | 50.42949 | 19.06589 | 1822 ft | 113 kts | 9° |
| 2026-05-04 10:54 | 50.45327 | 19.11714 | 1802 ft | 91 kts | 94° |
| 2026-05-04 10:54 | 50.45376 | 19.12347 | 1792 ft | 84 kts | 95° |
| 2026-05-04 10:56 | 50.47595 | 19.11807 | 1334 ft | 52 kts | 264° |
| 2026-05-04 10:56 | 50.47602 | 19.11228 | 1258 ft | 53 kts | 261° |
| 2026-05-04 10:56 | 50.47591 | 19.10673 | 1157 ft | 49 kts | 265° |
| 2026-05-04 10:57 | 50.47597 | 19.10155 | 1068 ft | 45 kts | 263° |
| 2026-05-04 10:57 | 50.47596 | 19.09701 | 1016 ft | 38 kts | 261° |
| 2026-05-04 10:57 | 50.47590 | 19.09309 | 995 ft | 38 kts | 270° |
| 2026-05-04 10:57 | 50.47611 | 19.08785 | 1116 ft | 54 kts | 262° |
| 2026-05-04 10:58 | 50.47557 | 19.08134 | 1196 ft | 66 kts | 233° |
| 2026-05-04 10:58 | 50.47118 | 19.07915 | 1278 ft | 76 kts | 179° |
| 2026-05-04 10:58 | 50.46675 | 19.08083 | 1597 ft | 64 kts | 176° |
| 2026-05-04 10:58 | 50.46225 | 19.08217 | 1761 ft | 69 kts | 181° |
| 2026-05-04 10:59 | 50.45687 | 19.08275 | 1848 ft | 85 kts | 184° |
| 2026-05-04 10:59 | 50.45099 | 19.08330 | 1996 ft | 84 kts | 179° |
| 2026-05-04 10:59 | 50.44502 | 19.08425 | 2000 ft | 91 kts | 181° |
| 2026-05-04 10:59 | 50.44041 | 19.08940 | 2022 ft | 106 kts | 92° |
| 2026-05-04 11:00 | 50.44377 | 19.10100 | 1952 ft | 113 kts | 70° |
| 2026-05-04 11:01 | 50.47576 | 19.14383 | 1648 ft | 98 kts | 323° |
| 2026-05-04 11:02 | 50.47695 | 19.13565 | 1554 ft | 82 kts | 252° |
| 2026-05-04 11:02 | 50.47614 | 19.12720 | 1459 ft | 76 kts | 264° |
| 2026-05-04 11:05 | 50.44354 | 19.08329 | 1836 ft | 101 kts | 206° |
| 2026-05-04 11:06 | 50.43759 | 19.07825 | 1866 ft | 94 kts | 214° |
| 2026-05-04 11:06 | 50.43219 | 19.07267 | 1826 ft | 93 kts | 217° |
| 2026-05-04 11:06 | 50.42691 | 19.06706 | 1865 ft | 96 kts | 216° |
| 2026-05-04 11:06 | 50.42152 | 19.06040 | 1824 ft | 100 kts | 221° |
| 2026-05-04 11:08 | 50.37860 | 19.07330 | 1704 ft | 99 kts | 146° |
| 2026-05-04 11:10 | 50.34010 | 19.11957 | 1638 ft | 113 kts | 148° |
| 2026-05-04 11:12 | 50.29880 | 19.15639 | 1564 ft | 94 kts | 183° |
| 2026-05-04 11:12 | 50.29249 | 19.15415 | 1532 ft | 95 kts | 211° |
| 2026-05-04 11:12 | 50.28935 | 19.14608 | 1583 ft | 86 kts | 256° |
| 2026-05-04 11:12 | 50.28817 | 19.13707 | 1616 ft | 87 kts | 246° |
| 2026-05-04 11:13 | 50.28620 | 19.12865 | 1786 ft | 79 kts | 245° |
| 2026-05-04 11:13 | 50.28417 | 19.11990 | 1825 ft | 93 kts | 250° |
| 2026-05-04 11:13 | 50.28299 | 19.11017 | 1902 ft | 89 kts | 257° |
| 2026-05-04 11:13 | 50.28163 | 19.10051 | 1904 ft | 88 kts | 246° |
| 2026-05-04 11:14 | 50.27941 | 19.09124 | 1860 ft | 88 kts | 242° |
| 2026-05-04 11:14 | 50.27542 | 19.08406 | 1856 ft | 90 kts | 219° |
| 2026-05-04 11:14 | 50.27007 | 19.07917 | 1857 ft | 93 kts | 204° |
| 2026-05-04 11:16 | 50.24367 | 19.04394 | 1167 ft | 49 kts | 229° |
| 2026-05-04 11:16 | 50.24158 | 19.04017 | 1004 ft | 42 kts | 231° |
| 2026-05-04 11:16 | 50.23996 | 19.03702 | 901 ft | 39 kts | 228° |
| 2026-05-04 11:17 | 50.23779 | 19.03315 | 978 ft | 54 kts | 229° |
| 2026-05-04 11:17 | 50.23502 | 19.02912 | 1173 ft | 54 kts | 221° |
| 2026-05-04 11:19 | 50.22767 | 19.05611 | 1967 ft | 101 kts | 43° |
| 2026-05-04 11:19 | 50.23292 | 19.06385 | 2020 ft | 101 kts | 46° |
| 2026-05-04 11:19 | 50.23854 | 19.06686 | 2139 ft | 80 kts | 332° |
| 2026-05-04 11:19 | 50.24250 | 19.06214 | 1931 ft | 65 kts | 301° |
| 2026-05-04 11:20 | 50.24533 | 19.05703 | 1644 ft | 60 kts | 298° |
| 2026-05-04 11:20 | 50.24744 | 19.05190 | 1420 ft | 53 kts | 284° |
| 2026-05-04 11:20 | 50.24607 | 19.04726 | 1285 ft | 52 kts | 218° |
| 2026-05-04 11:20 | 50.24340 | 19.04367 | 1148 ft | 48 kts | 228° |
| 2026-05-04 11:22 | 50.24105 | 19.03423 | 899 ft | 9 kts | 84° |
| 2026-05-04 11:22 | 50.24091 | 19.03451 | 899 ft | 0 kts | 168° |
| 2026-05-04 11:31 | 50.24017 | 19.03393 | 898 ft | 8 kts | 188° |
| 2026-05-04 11:33 | 50.23947 | 19.03612 | 897 ft | 0 kts | 231° |
| 2026-05-04 11:34 | 50.23863 | 19.03459 | 898 ft | 44 kts | 229° |
| 2026-05-04 11:34 | 50.23622 | 19.03026 | 1015 ft | 57 kts | 227° |
| 2026-05-04 11:34 | 50.23371 | 19.02575 | 1215 ft | 51 kts | 231° |
| 2026-05-04 11:34 | 50.23172 | 19.02012 | 1310 ft | 74 kts | 257° |
| 2026-05-04 11:35 | 50.23240 | 19.01203 | 1363 ft | 78 kts | 278° |
| 2026-05-04 11:35 | 50.23387 | 19.00390 | 1450 ft | 83 kts | 278° |
| 2026-05-04 11:35 | 50.23553 | 18.99513 | 1556 ft | 85 kts | 283° |
| 2026-05-04 11:35 | 50.23744 | 18.98609 | 1656 ft | 90 kts | 278° |
| 2026-05-04 11:36 | 50.23955 | 18.97665 | 1739 ft | 93 kts | 284° |
| 2026-05-04 11:36 | 50.24243 | 18.96752 | 1752 ft | 95 kts | 292° |
| 2026-05-04 11:36 | 50.24561 | 18.95873 | 1804 ft | 91 kts | 290° |
| 2026-05-04 11:36 | 50.24824 | 18.94929 | 1770 ft | 96 kts | 283° |
| 2026-05-04 11:37 | 50.25054 | 18.93987 | 1809 ft | 92 kts | 283° |
| 2026-05-04 11:37 | 50.25203 | 18.93004 | 1733 ft | 92 kts | 264° |
| 2026-05-04 11:37 | 50.25208 | 18.92021 | 1754 ft | 89 kts | 271° |
| 2026-05-04 11:37 | 50.25350 | 18.91055 | 1714 ft | 95 kts | 276° |
| 2026-05-04 11:38 | 50.25518 | 18.90053 | 1675 ft | 99 kts | 278° |
| 2026-05-04 11:38 | 50.25688 | 18.88981 | 1601 ft | 100 kts | 273° |
| 2026-05-04 11:38 | 50.25780 | 18.87980 | 1622 ft | 93 kts | 270° |
| 2026-05-04 11:38 | 50.25814 | 18.86966 | 1508 ft | 91 kts | 262° |
| 2026-05-04 11:39 | 50.25690 | 18.86036 | 1441 ft | 88 kts | 255° |
| 2026-05-04 11:39 | 50.25746 | 18.85060 | 1458 ft | 93 kts | 276° |
| 2026-05-04 11:40 | 50.26253 | 18.79248 | 1364 ft | 93 kts | 278° |
| 2026-05-04 11:41 | 50.26509 | 18.78346 | 1342 ft | 92 kts | 290° |
| 2026-05-04 11:41 | 50.26796 | 18.77464 | 1247 ft | 91 kts | 286° |
| 2026-05-04 11:41 | 50.27041 | 18.76595 | 1240 ft | 82 kts | 281° |
| 2026-05-04 11:41 | 50.26999 | 18.75811 | 1291 ft | 71 kts | 251° |
| 2026-05-04 11:42 | 50.26884 | 18.75029 | 1418 ft | 77 kts | 252° |
| 2026-05-04 11:42 | 50.26805 | 18.74470 | 1519 ft | 81 kts | 254° |
| 2026-05-04 11:42 | 50.26826 | 18.73597 | 1632 ft | 87 kts | 282° |
| 2026-05-04 11:42 | 50.27610 | 18.73358 | 1751 ft | 106 kts | 40° |
| 2026-05-04 11:43 | 50.27697 | 18.74450 | 1692 ft | 106 kts | 130° |
| 2026-05-04 11:43 | 50.27329 | 18.74797 | 1713 ft | 85 kts | 191° |
| 2026-05-04 11:43 | 50.27068 | 18.74225 | 1645 ft | 89 kts | 290° |
| 2026-05-04 11:43 | 50.27739 | 18.74025 | 1528 ft | 117 kts | 17° |
| 2026-05-04 11:44 | 50.28188 | 18.74995 | 1563 ft | 109 kts | 98° |
| 2026-05-04 11:44 | 50.27759 | 18.75627 | 1519 ft | 80 kts | 207° |
| 2026-05-04 11:44 | 50.27393 | 18.74996 | 1425 ft | 87 kts | 219° |
| 2026-05-04 11:44 | 50.26783 | 18.74701 | 1313 ft | 94 kts | 182° |
| 2026-05-04 11:45 | 50.26193 | 18.75121 | 1359 ft | 99 kts | 139° |
| 2026-05-04 11:45 | 50.26274 | 18.76197 | 1367 ft | 111 kts | 34° |
| 2026-05-04 11:45 | 50.26674 | 18.75852 | 1572 ft | 66 kts | 223° |
| 2026-05-04 11:45 | 50.26227 | 18.75427 | 1370 ft | 96 kts | 243° |
| 2026-05-04 11:46 | 50.26684 | 18.75056 | 1283 ft | 123 kts | 50° |
| 2026-05-04 11:46 | 50.26479 | 18.75841 | 1296 ft | 88 kts | 211° |
| 2026-05-04 11:46 | 50.26571 | 18.74984 | 1322 ft | 93 kts | 295° |
| 2026-05-04 11:46 | 50.26857 | 18.74195 | 1538 ft | 74 kts | 283° |
| 2026-05-04 11:47 | 50.27055 | 18.73471 | 1665 ft | 72 kts | 272° |
| 2026-05-04 11:47 | 50.27015 | 18.72655 | 1741 ft | 82 kts | 256° |
| 2026-05-04 11:47 | 50.26923 | 18.71778 | 1792 ft | 82 kts | 254° |
| 2026-05-04 11:47 | 50.26842 | 18.70905 | 1923 ft | 76 kts | 250° |
| 2026-05-04 11:48 | 50.26836 | 18.70057 | 1815 ft | 78 kts | 277° |
| 2026-05-04 11:48 | 50.26810 | 18.69146 | 1339 ft | 86 kts | 270° |
| 2026-05-04 11:48 | 50.26781 | 18.68387 | 1088 ft | 53 kts | 253° |
| 2026-05-04 11:48 | 50.26758 | 18.67879 | 912 ft | 42 kts | 257° |
| 2026-05-04 11:49 | 50.26740 | 18.67507 | 867 ft | 25 kts | 268° |
| 2026-05-04 11:49 | 50.26784 | 18.67305 | 866 ft | 18 kts | 0° |
| 2026-05-04 11:49 | 50.26896 | 18.67305 | 863 ft | 16 kts | 1° |
| 2026-05-04 11:49 | 50.27009 | 18.67292 | 858 ft | 20 kts | 352° |
| 2026-05-04 11:50 | 50.27139 | 18.67272 | 860 ft | 19 kts | 352° |
| 2026-05-04 11:50 | 50.27245 | 18.67257 | 866 ft | 12 kts | 14° |
| 2026-05-04 11:50 | 50.27266 | 18.67296 | 862 ft | 0 kts | 90° |